sensor_id;sensor_type;location;lat;lon;timestamp;pressure;altitude;pressure_sealevel;temperature;humidity
54122;BME280;40029;58.708;50.190;2023-04-08T00:01:16;101666.13;;;-0.16;32.65
54122;BME280;40029;58.708;50.190;2023-04-08T00:04:06;101696.66;;;0.02;32.31
54122;BME280;40029;58.708;50.190;2023-04-08T00:06:39;101665.13;;;-0.19;32.36
54122;BME280;40029;58.708;50.190;2023-04-08T00:09:28;101731.16;;;0.12;32.32
54122;BME280;40029;58.708;50.190;2023-04-08T00:12:00;101669.31;;;-0.21;32.62
54122;BME280;40029;58.708;50.190;2023-04-08T00:14:31;101681.59;;;-0.13;33.36
54122;BME280;40029;58.708;50.190;2023-04-08T00:17:02;101728.50;;;0.09;32.88
54122;BME280;40029;58.708;50.190;2023-04-08T00:19:51;101724.13;;;0.06;32.80
54122;BME280;40029;58.708;50.190;2023-04-08T00:22:22;101717.66;;;-0.08;33.13
54122;BME280;40029;58.708;50.190;2023-04-08T00:25:12;101685.59;;;-0.21;32.76
54122;BME280;40029;58.708;50.190;2023-04-08T00:27:43;101667.25;;;-0.32;32.85
54122;BME280;40029;58.708;50.190;2023-04-08T00:30:14;101667.13;;;-0.35;33.12
54122;BME280;40029;58.708;50.190;2023-04-08T00:32:46;101717.81;;;-0.04;33.44
54122;BME280;40029;58.708;50.190;2023-04-08T00:35:18;101728.28;;;0.03;32.62
54122;BME280;40029;58.708;50.190;2023-04-08T00:37:49;101718.81;;;0.00;33.46
54122;BME280;40029;58.708;50.190;2023-04-08T00:40:20;101728.22;;;0.01;33.24
54122;BME280;40029;58.708;50.190;2023-04-08T00:42:51;101722.94;;;-0.04;33.66
54122;BME280;40029;58.708;50.190;2023-04-08T00:45:23;101666.34;;;-0.34;33.26
54122;BME280;40029;58.708;50.190;2023-04-08T00:47:55;101725.50;;;-0.04;34.05
54122;BME280;40029;58.708;50.190;2023-04-08T00:50:26;101728.84;;;-0.05;34.10
54122;BME280;40029;58.708;50.190;2023-04-08T00:52:57;101712.56;;;-0.07;33.87
54122;BME280;40029;58.708;50.190;2023-04-08T00:55:28;101737.66;;;0.02;34.01
54122;BME280;40029;58.708;50.190;2023-04-08T00:58:18;101578.69;;;-0.95;34.67
54122;BME280;40029;58.708;50.190;2023-04-08T01:01:21;101737.44;;;-0.04;35.38
54122;BME280;40029;58.708;50.190;2023-04-08T01:04:19;101741.63;;;-0.06;34.50
54122;BME280;40029;58.708;50.190;2023-04-08T01:07:00;101674.31;;;-0.48;34.77
54122;BME280;40029;58.708;50.190;2023-04-08T01:09:37;101730.03;;;-0.19;34.19
54122;BME280;40029;58.708;50.190;2023-04-08T01:12:11;101681.13;;;-0.49;34.11
54122;BME280;40029;58.708;50.190;2023-04-08T01:14:46;101674.00;;;-0.56;34.26
54122;BME280;40029;58.708;50.190;2023-04-08T01:17:21;101673.78;;;-0.62;34.05
54122;BME280;40029;58.708;50.190;2023-04-08T01:19:53;101672.97;;;-0.61;34.32
54122;BME280;40029;58.708;50.190;2023-04-08T01:25:35;101654.88;;;-0.66;33.85
54122;BME280;40029;58.708;50.190;2023-04-08T01:28:11;101620.84;;;-0.86;33.55
54122;BME280;40029;58.708;50.190;2023-04-08T01:30:44;101667.72;;;-0.64;33.54
54122;BME280;40029;58.708;50.190;2023-04-08T01:33:17;101718.47;;;-0.32;33.85
54122;BME280;40029;58.708;50.190;2023-04-08T01:35:51;101665.13;;;-0.66;33.45
54122;BME280;40029;58.708;50.190;2023-04-08T01:38:23;101669.50;;;-0.63;33.68
54122;BME280;40029;58.708;50.190;2023-04-08T01:40:58;101713.88;;;-0.40;33.59
54122;BME280;40029;58.708;50.190;2023-04-08T01:43:30;101706.94;;;-0.43;33.63
54122;BME280;40029;58.708;50.190;2023-04-08T01:46:04;101610.03;;;-1.01;33.71
54122;BME280;40029;58.708;50.190;2023-04-08T01:48:37;101718.25;;;-0.38;34.04
54122;BME280;40029;58.708;50.190;2023-04-08T01:51:10;101709.41;;;-0.46;34.41
54122;BME280;40029;58.708;50.190;2023-04-08T01:53:42;101695.19;;;-0.60;34.13
54122;BME280;40029;58.708;50.190;2023-04-08T01:56:14;101677.09;;;-0.65;34.53
54122;BME280;40029;58.708;50.190;2023-04-08T01:58:50;101721.56;;;-0.40;34.25
54122;BME280;40029;58.708;50.190;2023-04-08T02:01:24;101725.94;;;-0.38;34.58
54122;BME280;40029;58.708;50.190;2023-04-08T02:03:58;101695.53;;;-0.51;34.72
54122;BME280;40029;58.708;50.190;2023-04-08T02:06:30;101727.56;;;-0.40;34.73
54122;BME280;40029;58.708;50.190;2023-04-08T02:09:03;101709.41;;;-0.46;34.99
54122;BME280;40029;58.708;50.190;2023-04-08T02:11:35;101728.41;;;-0.39;34.77
54122;BME280;40029;58.708;50.190;2023-04-08T02:14:06;101710.09;;;-0.50;35.31
54122;BME280;40029;58.708;50.190;2023-04-08T02:16:53;101728.25;;;-0.44;34.94
54122;BME280;40029;58.708;50.190;2023-04-08T02:19:33;101732.31;;;-0.49;35.50
54122;BME280;40029;58.708;50.190;2023-04-08T02:22:12;101682.91;;;-0.69;35.46
54122;BME280;40029;58.708;50.190;2023-04-08T02:24:47;101721.38;;;-0.45;35.42
54122;BME280;40029;58.708;50.190;2023-04-08T02:27:19;101626.31;;;-0.99;35.16
54122;BME280;40029;58.708;50.190;2023-04-08T02:29:54;101691.16;;;-0.55;35.04
54122;BME280;40029;58.708;50.190;2023-04-08T02:32:27;101733.25;;;-0.24;35.43
54122;BME280;40029;58.708;50.190;2023-04-08T02:35:03;101678.34;;;-0.55;35.58
54122;BME280;40029;58.708;50.190;2023-04-08T02:37:35;101739.47;;;-0.18;35.66
54122;BME280;40029;58.708;50.190;2023-04-08T02:40:27;101737.38;;;-0.06;35.58
54122;BME280;40029;58.708;50.190;2023-04-08T02:43:00;101736.28;;;-0.12;35.52
54122;BME280;40029;58.708;50.190;2023-04-08T02:45:40;101695.59;;;-0.27;35.66
54122;BME280;40029;58.708;50.190;2023-04-08T02:48:12;101738.34;;;-0.02;35.82
54122;BME280;40029;58.708;50.190;2023-04-08T02:50:43;101730.63;;;-0.04;35.28
54122;BME280;40029;58.708;50.190;2023-04-08T02:53:14;101736.78;;;0.02;35.65
54122;BME280;40029;58.708;50.190;2023-04-08T02:55:46;101744.69;;;0.08;35.33
54122;BME280;40029;58.708;50.190;2023-04-08T02:58:17;101737.38;;;0.18;35.37
54122;BME280;40029;58.708;50.190;2023-04-08T03:00:48;101728.03;;;0.20;34.85
54122;BME280;40029;58.708;50.190;2023-04-08T03:03:19;101693.34;;;0.05;34.97
54122;BME280;40029;58.708;50.190;2023-04-08T03:05:57;101734.63;;;0.38;34.70
54122;BME280;40029;58.708;50.190;2023-04-08T03:08:28;101732.41;;;0.47;34.68
54122;BME280;40029;58.708;50.190;2023-04-08T03:10:59;101678.31;;;0.15;35.00
54122;BME280;40029;58.708;50.190;2023-04-08T03:13:30;101681.31;;;0.28;34.53
54122;BME280;40029;58.708;50.190;2023-04-08T03:16:01;101732.09;;;0.63;34.73
54122;BME280;40029;58.708;50.190;2023-04-08T03:18:32;101741.16;;;0.78;34.35
54122;BME280;40029;58.708;50.190;2023-04-08T03:21:22;101736.31;;;0.87;34.28
54122;BME280;40029;58.708;50.190;2023-04-08T03:23:53;101684.28;;;0.65;33.83
54122;BME280;40029;58.708;50.190;2023-04-08T03:26:24;101736.91;;;1.05;34.21
54122;BME280;40029;58.708;50.190;2023-04-08T03:28:57;101738.16;;;1.18;33.57
54122;BME280;40029;58.708;50.190;2023-04-08T03:31:46;101734.25;;;1.29;33.81
54122;BME280;40029;58.708;50.190;2023-04-08T03:34:17;101674.31;;;1.02;33.70
54122;BME280;40029;58.708;50.190;2023-04-08T03:36:48;101724.44;;;1.44;33.47
54122;BME280;40029;58.708;50.190;2023-04-08T03:39:37;101721.38;;;1.56;33.27
54122;BME280;40029;58.708;50.190;2023-04-08T03:42:08;101725.25;;;1.70;32.75
54122;BME280;40029;58.708;50.190;2023-04-08T03:44:40;101685.59;;;1.62;33.00
54122;BME280;40029;58.708;50.190;2023-04-08T03:47:11;101732.91;;;1.99;32.59
54122;BME280;40029;58.708;50.190;2023-04-08T03:49:42;101682.81;;;1.85;32.71
54122;BME280;40029;58.708;50.190;2023-04-08T03:52:13;101683.06;;;1.94;31.97
54122;BME280;40029;58.708;50.190;2023-04-08T03:54:44;101716.53;;;2.25;32.78
54122;BME280;40029;58.708;50.190;2023-04-08T03:57:15;101667.16;;;2.07;31.70
54122;BME280;40029;58.708;50.190;2023-04-08T03:59:46;101718.09;;;2.52;31.49
54122;BME280;40029;58.708;50.190;2023-04-08T04:02:17;101651.38;;;2.27;32.18
54122;BME280;40029;58.708;50.190;2023-04-08T04:04:48;101662.97;;;2.42;32.37
54122;BME280;40029;58.708;50.190;2023-04-08T04:07:19;101668.31;;;2.52;32.06
54122;BME280;40029;58.708;50.190;2023-04-08T04:09:50;101678.28;;;2.72;31.88
54122;BME280;40029;58.708;50.190;2023-04-08T04:12:24;101716.03;;;3.08;31.86
54122;BME280;40029;58.708;50.190;2023-04-08T04:14:55;101719.78;;;3.21;32.23
54122;BME280;40029;58.708;50.190;2023-04-08T04:17:26;101663.47;;;2.98;31.68
54122;BME280;40029;58.708;50.190;2023-04-08T04:19:57;101713.38;;;3.41;31.49
54122;BME280;40029;58.708;50.190;2023-04-08T04:22:28;101668.28;;;3.22;31.09
54122;BME280;40029;58.708;50.190;2023-04-08T04:24:59;101712.97;;;3.62;31.52
54122;BME280;40029;58.708;50.190;2023-04-08T04:27:30;101685.97;;;3.45;31.10
54122;BME280;40029;58.708;50.190;2023-04-08T04:30:02;101721.88;;;3.76;30.45
54122;BME280;40029;58.708;50.190;2023-04-08T04:32:34;101656.13;;;3.56;30.17
54122;BME280;40029;58.708;50.190;2023-04-08T04:35:05;101673.84;;;3.82;30.13
54122;BME280;40029;58.708;50.190;2023-04-08T04:37:37;101714.03;;;4.14;28.77
54122;BME280;40029;58.708;50.190;2023-04-08T04:40:08;101704.81;;;4.25;28.47
54122;BME280;40029;58.708;50.190;2023-04-08T04:42:39;101660.72;;;4.15;27.73
54122;BME280;40029;58.708;50.190;2023-04-08T04:45:10;101655.66;;;4.19;27.28
54122;BME280;40029;58.708;50.190;2023-04-08T04:47:42;101703.72;;;4.63;27.12
54122;BME280;40029;58.708;50.190;2023-04-08T04:50:13;101656.03;;;4.39;26.44
54122;BME280;40029;58.708;50.190;2023-04-08T04:52:45;101702.34;;;4.80;25.61
54122;BME280;40029;58.708;50.190;2023-04-08T04:55:34;101702.56;;;4.94;24.66
54122;BME280;40029;58.708;50.190;2023-04-08T04:58:05;101702.69;;;5.01;24.67
54122;BME280;40029;58.708;50.190;2023-04-08T05:00:36;101656.09;;;4.97;23.69
54122;BME280;40029;58.708;50.190;2023-04-08T05:03:07;101668.44;;;5.18;22.98
54122;BME280;40029;58.708;50.190;2023-04-08T05:05:39;101653.78;;;5.15;22.99
54122;BME280;40029;58.708;50.190;2023-04-08T05:08:10;101702.63;;;5.59;22.20
54122;BME280;40029;58.708;50.190;2023-04-08T05:10:41;101711.50;;;5.76;22.22
54122;BME280;40029;58.708;50.190;2023-04-08T05:13:12;101654.38;;;5.58;21.54
54122;BME280;40029;58.708;50.190;2023-04-08T05:15:43;101698.78;;;5.93;21.26
54122;BME280;40029;58.708;50.190;2023-04-08T05:18:18;101654.63;;;5.80;21.40
54122;BME280;40029;58.708;50.190;2023-04-08T05:20:49;101672.94;;;5.93;21.01
54122;BME280;40029;58.708;50.190;2023-04-08T05:23:20;101658.25;;;5.94;20.54
54122;BME280;40029;58.708;50.190;2023-04-08T05:25:51;101708.72;;;6.30;20.22
54122;BME280;40029;58.708;50.190;2023-04-08T05:28:41;101711.38;;;6.39;20.06
54122;BME280;40029;58.708;50.190;2023-04-08T05:31:14;101710.66;;;6.54;19.75
54122;BME280;40029;58.708;50.190;2023-04-08T05:33:46;101666.50;;;6.40;19.41
54122;BME280;40029;58.708;50.190;2023-04-08T05:36:18;101669.25;;;6.55;19.30
54122;BME280;40029;58.708;50.190;2023-04-08T05:38:49;101694.56;;;6.85;19.26
54122;BME280;40029;58.708;50.190;2023-04-08T05:41:20;101659.94;;;6.75;19.14
54122;BME280;40029;58.708;50.190;2023-04-08T05:44:10;101715.53;;;7.22;18.71
54122;BME280;40029;58.708;50.190;2023-04-08T05:46:41;101663.59;;;7.08;18.10
54122;BME280;40029;58.708;50.190;2023-04-08T05:49:13;101702.72;;;7.40;17.19
54122;BME280;40029;58.708;50.190;2023-04-08T05:51:44;101659.41;;;7.30;16.61
54122;BME280;40029;58.708;50.190;2023-04-08T05:54:15;101669.03;;;7.49;15.66
54122;BME280;40029;58.708;50.190;2023-04-08T05:56:46;101696.84;;;7.80;15.62
54122;BME280;40029;58.708;50.190;2023-04-08T05:59:18;101699.53;;;7.95;14.55
54122;BME280;40029;58.708;50.190;2023-04-08T06:01:49;101697.78;;;7.97;14.27
54122;BME280;40029;58.708;50.190;2023-04-08T06:04:20;101699.56;;;8.10;13.47
54122;BME280;40029;58.708;50.190;2023-04-08T06:06:51;101651.09;;;8.00;12.99
54122;BME280;40029;58.708;50.190;2023-04-08T06:09:22;101645.03;;;8.04;12.67
54122;BME280;40029;58.708;50.190;2023-04-08T06:11:53;101653.72;;;8.18;12.15
54122;BME280;40029;58.708;50.190;2023-04-08T06:14:26;101652.00;;;8.20;12.00
54122;BME280;40029;58.708;50.190;2023-04-08T06:16:57;101634.69;;;8.22;11.90
54122;BME280;40029;58.708;50.190;2023-04-08T06:19:28;101691.06;;;8.59;11.39
54122;BME280;40029;58.708;50.190;2023-04-08T06:22:00;101632.09;;;8.32;11.33
54122;BME280;40029;58.708;50.190;2023-04-08T06:24:31;101672.00;;;8.60;10.96
54122;BME280;40029;58.708;50.190;2023-04-08T06:27:02;101690.19;;;8.80;10.42
54122;BME280;40029;58.708;50.190;2023-04-08T06:29:33;101652.06;;;8.62;10.62
54122;BME280;40029;58.708;50.190;2023-04-08T06:32:04;101653.81;;;8.69;10.44
54122;BME280;40029;58.708;50.190;2023-04-08T06:34:36;101646.03;;;8.58;9.90
54122;BME280;40029;58.708;50.190;2023-04-08T06:37:25;101697.97;;;9.04;9.78
54122;BME280;40029;58.708;50.190;2023-04-08T06:39:56;101658.09;;;8.96;9.45
54122;BME280;40029;58.708;50.190;2023-04-08T06:42:27;101692.75;;;9.19;9.40
54122;BME280;40029;58.708;50.190;2023-04-08T06:45:17;101650.31;;;9.00;8.71
54122;BME280;40029;58.708;50.190;2023-04-08T06:48:06;101675.44;;;9.18;9.06
54122;BME280;40029;58.708;50.190;2023-04-08T06:50:39;101686.69;;;9.19;8.83
54122;BME280;40029;58.708;50.190;2023-04-08T06:53:10;101633.84;;;9.03;8.61
54122;BME280;40029;58.708;50.190;2023-04-08T06:55:41;101647.66;;;9.17;7.82
54122;BME280;40029;58.708;50.190;2023-04-08T06:58:31;101623.41;;;9.17;7.82
54122;BME280;40029;58.708;50.190;2023-04-08T07:01:02;101679.66;;;9.58;7.57
54122;BME280;40029;58.708;50.190;2023-04-08T07:03:33;101638.09;;;9.41;7.30
54122;BME280;40029;58.708;50.190;2023-04-08T07:06:04;101671.81;;;9.70;7.55
54122;BME280;40029;58.708;50.190;2023-04-08T07:08:36;101680.47;;;9.70;7.74
54122;BME280;40029;58.708;50.190;2023-04-08T07:11:07;101671.75;;;9.82;6.96
54122;BME280;40029;58.708;50.190;2023-04-08T07:13:38;101625.94;;;9.44;6.85
54122;BME280;40029;58.708;50.190;2023-04-08T07:16:09;101635.44;;;9.56;6.36
54122;BME280;40029;58.708;50.190;2023-04-08T07:18:40;101669.91;;;10.01;7.19
54122;BME280;40029;58.708;50.190;2023-04-08T07:21:12;101659.50;;;10.01;6.16
54122;BME280;40029;58.708;50.190;2023-04-08T07:23:43;101659.44;;;10.10;6.85
54122;BME280;40029;58.708;50.190;2023-04-08T07:26:15;101644.78;;;9.98;6.89
54122;BME280;40029;58.708;50.190;2023-04-08T07:29:04;101662.13;;;10.02;6.15
54122;BME280;40029;58.708;50.190;2023-04-08T07:31:35;101627.44;;;9.93;6.42
54122;BME280;40029;58.708;50.190;2023-04-08T07:34:25;101648.25;;;9.99;6.13
54122;BME280;40029;58.708;50.190;2023-04-08T07:36:56;101662.97;;;10.08;6.15
54122;BME280;40029;58.708;50.190;2023-04-08T07:39:27;101673.31;;;10.20;6.34
54122;BME280;40029;58.708;50.190;2023-04-08T07:41:58;101655.13;;;10.12;5.82
54122;BME280;40029;58.708;50.190;2023-04-08T07:44:30;101655.03;;;10.23;5.88
54122;BME280;40029;58.708;50.190;2023-04-08T07:47:01;101654.16;;;10.22;6.60
54122;BME280;40029;58.708;50.190;2023-04-08T07:49:32;101509.69;;;9.49;5.92
54122;BME280;40029;58.708;50.190;2023-04-08T07:52:04;101628.13;;;10.29;6.55
54122;BME280;40029;58.708;50.190;2023-04-08T07:54:36;101661.78;;;10.53;5.60
54122;BME280;40029;58.708;50.190;2023-04-08T07:57:07;101624.59;;;10.37;6.24
54122;BME280;40029;58.708;50.190;2023-04-08T07:59:38;101613.34;;;10.31;6.10
54122;BME280;40029;58.708;50.190;2023-04-08T08:02:09;101628.06;;;10.38;5.86
54122;BME280;40029;58.708;50.190;2023-04-08T08:05:00;101640.00;;;10.66;5.60
54122;BME280;40029;58.708;50.190;2023-04-08T08:07:31;101609.81;;;10.38;5.85
54122;BME280;40029;58.708;50.190;2023-04-08T08:10:02;101602.06;;;10.30;5.47
54122;BME280;40029;58.708;50.190;2023-04-08T08:12:33;101609.78;;;10.42;5.62
54122;BME280;40029;58.708;50.190;2023-04-08T08:15:05;101648.63;;;10.73;5.22
54122;BME280;40029;58.708;50.190;2023-04-08T08:17:36;101585.63;;;10.17;5.70
54122;BME280;40029;58.708;50.190;2023-04-08T08:20:07;101648.63;;;10.71;4.79
54122;BME280;40029;58.708;50.190;2023-04-08T08:22:38;101607.16;;;10.44;4.98
54122;BME280;40029;58.708;50.190;2023-04-08T08:25:10;101628.59;;;10.80;4.73
54122;BME280;40029;58.708;50.190;2023-04-08T08:27:41;101608.63;;;10.75;5.42
54122;BME280;40029;58.708;50.190;2023-04-08T08:30:12;101636.22;;;10.98;4.74
54122;BME280;40029;58.708;50.190;2023-04-08T08:32:43;101638.69;;;11.12;4.72
54122;BME280;40029;58.708;50.190;2023-04-08T08:35:15;101635.25;;;11.10;5.17
54122;BME280;40029;58.708;50.190;2023-04-08T08:37:46;101581.53;;;10.90;4.66
54122;BME280;40029;58.708;50.190;2023-04-08T08:40:17;101625.59;;;11.16;4.70
54122;BME280;40029;58.708;50.190;2023-04-08T08:42:51;101610.84;;;11.14;4.72
54122;BME280;40029;58.708;50.190;2023-04-08T08:45:22;101625.47;;;11.25;4.96
54122;BME280;40029;58.708;50.190;2023-04-08T08:47:53;101615.00;;;11.32;4.96
54122;BME280;40029;58.708;50.190;2023-04-08T08:50:25;101583.81;;;11.19;5.31
54122;BME280;40029;58.708;50.190;2023-04-08T08:52:56;101620.09;;;11.41;5.00
54122;BME280;40029;58.708;50.190;2023-04-08T08:55:30;101569.13;;;11.11;5.01
54122;BME280;40029;58.708;50.190;2023-04-08T08:58:04;101604.41;;;11.44;4.47
54122;BME280;40029;58.708;50.190;2023-04-08T09:00:41;101565.47;;;11.25;4.42
54122;BME280;40029;58.708;50.190;2023-04-08T09:03:22;101559.31;;;11.34;4.55
54122;BME280;40029;58.708;50.190;2023-04-08T09:05:59;101605.81;;;11.69;4.39
54122;BME280;40029;58.708;50.190;2023-04-08T09:08:35;101547.13;;;11.35;4.87
54122;BME280;40029;58.708;50.190;2023-04-08T09:11:14;101546.13;;;11.43;4.93
54122;BME280;40029;58.708;50.190;2023-04-08T09:13:46;101530.47;;;11.43;4.37
54122;BME280;40029;58.708;50.190;2023-04-08T09:16:19;101609.47;;;11.55;4.25
54122;BME280;40029;58.708;50.190;2023-04-08T09:18:52;101555.59;;;11.52;4.54
54122;BME280;40029;58.708;50.190;2023-04-08T09:21:23;101588.38;;;11.73;4.50
54122;BME280;40029;58.708;50.190;2023-04-08T09:23:57;101543.16;;;11.68;5.23
54122;BME280;40029;58.708;50.190;2023-04-08T09:26:28;101579.31;;;12.00;5.60
54122;BME280;40029;58.708;50.190;2023-04-08T09:31:54;101550.41;;;12.09;5.48
54122;BME280;40029;58.708;50.190;2023-04-08T09:34:27;101530.59;;;11.96;4.65
54122;BME280;40029;58.708;50.190;2023-04-08T09:36:58;101572.19;;;12.11;5.30
54122;BME280;40029;58.708;50.190;2023-04-08T09:39:48;101529.81;;;11.91;4.28
54122;BME280;40029;58.708;50.190;2023-04-08T09:42:20;101567.50;;;12.30;4.65
54122;BME280;40029;58.708;50.190;2023-04-08T09:45:11;101525.00;;;12.20;4.49
54122;BME280;40029;58.708;50.190;2023-04-08T09:48:17;101564.41;;;12.59;5.08
54122;BME280;40029;58.708;50.190;2023-04-08T09:50:55;101512.81;;;12.18;4.33
54122;BME280;40029;58.708;50.190;2023-04-08T09:53:33;101525.59;;;12.35;4.29
54122;BME280;40029;58.708;50.190;2023-04-08T09:56:09;101538.59;;;12.41;4.70
54122;BME280;40029;58.708;50.190;2023-04-08T09:58:50;101547.03;;;12.55;4.68
54122;BME280;40029;58.708;50.190;2023-04-08T10:01:27;101556.66;;;12.55;4.02
54122;BME280;40029;58.708;50.190;2023-04-08T10:03:59;101465.72;;;12.22;4.07
54122;BME280;40029;58.708;50.190;2023-04-08T10:06:36;101557.94;;;12.80;3.75
54122;BME280;40029;58.708;50.190;2023-04-08T10:09:08;101532.03;;;12.66;4.10
54122;BME280;40029;58.708;50.190;2023-04-08T10:11:40;101509.31;;;12.68;3.80
54122;BME280;40029;58.708;50.190;2023-04-08T10:14:11;101535.81;;;12.95;3.89
54122;BME280;40029;58.708;50.190;2023-04-08T10:16:42;101540.00;;;13.05;4.48
54122;BME280;40029;58.708;50.190;2023-04-08T10:19:37;101542.50;;;13.11;3.03
54122;BME280;40029;58.708;50.190;2023-04-08T10:22:45;101532.78;;;13.16;2.42
54122;BME280;40029;58.708;50.190;2023-04-08T10:27:49;101528.94;;;13.36;3.37
54122;BME280;40029;58.708;50.190;2023-04-08T10:32:58;101520.16;;;13.38;3.78
54122;BME280;40029;58.708;50.190;2023-04-08T10:35:37;101485.25;;;13.38;3.53
54122;BME280;40029;58.708;50.190;2023-04-08T10:38:13;101512.59;;;13.65;3.00
54122;BME280;40029;58.708;50.190;2023-04-08T10:40:44;101506.25;;;13.73;3.60
54122;BME280;40029;58.708;50.190;2023-04-08T10:43:16;101513.34;;;13.70;3.48
54122;BME280;40029;58.708;50.190;2023-04-08T10:45:47;101509.63;;;13.79;2.90
54122;BME280;40029;58.708;50.190;2023-04-08T10:48:22;101506.03;;;13.83;3.69
54122;BME280;40029;58.708;50.190;2023-04-08T10:51:00;101456.66;;;13.66;3.91
54122;BME280;40029;58.708;50.190;2023-04-08T10:53:34;101497.09;;;13.91;3.30
54122;BME280;40029;58.708;50.190;2023-04-08T10:58:51;101473.34;;;13.99;3.35
54122;BME280;40029;58.708;50.190;2023-04-08T11:01:22;101494.19;;;14.04;3.51
54122;BME280;40029;58.708;50.190;2023-04-08T11:03:54;101448.75;;;13.67;3.11
54122;BME280;40029;58.708;50.190;2023-04-08T11:06:25;101457.91;;;13.87;2.67
54122;BME280;40029;58.708;50.190;2023-04-08T11:08:57;101494.19;;;14.04;2.98
54122;BME280;40029;58.708;50.190;2023-04-08T11:11:30;101446.66;;;13.83;2.39
54122;BME280;40029;58.708;50.190;2023-04-08T11:14:02;101479.94;;;14.14;2.38
54122;BME280;40029;58.708;50.190;2023-04-08T11:16:34;101469.69;;;14.05;2.52
54122;BME280;40029;58.708;50.190;2023-04-08T11:19:06;101467.69;;;14.14;2.83
54122;BME280;40029;58.708;50.190;2023-04-08T11:21:57;101471.09;;;14.19;3.00
54122;BME280;40029;58.708;50.190;2023-04-08T11:24:28;101471.50;;;14.35;2.83
54122;BME280;40029;58.708;50.190;2023-04-08T11:27:18;101426.72;;;14.12;2.82
54122;BME280;40029;58.708;50.190;2023-04-08T11:29:49;101418.78;;;14.13;2.68
54122;BME280;40029;58.708;50.190;2023-04-08T11:32:21;101464.59;;;14.33;2.27
54122;BME280;40029;58.708;50.190;2023-04-08T11:34:53;101416.06;;;14.18;2.21
54122;BME280;40029;58.708;50.190;2023-04-08T11:37:24;101428.16;;;14.23;2.13
54122;BME280;40029;58.708;50.190;2023-04-08T11:39:56;101466.56;;;14.59;2.19
54122;BME280;40029;58.708;50.190;2023-04-08T11:42:46;101446.25;;;14.65;2.48
54122;BME280;40029;58.708;50.190;2023-04-08T11:45:19;101365.81;;;14.33;2.59
54122;BME280;40029;58.708;50.190;2023-04-08T11:47:51;101395.53;;;14.66;2.63
54122;BME280;40029;58.708;50.190;2023-04-08T11:50:23;101437.16;;;15.08;2.08
54122;BME280;40029;58.708;50.190;2023-04-08T11:52:54;101444.22;;;15.34;1.79
54122;BME280;40029;58.708;50.190;2023-04-08T11:55:28;101430.50;;;15.53;1.55
54122;BME280;40029;58.708;50.190;2023-04-08T11:58:18;101393.19;;;15.96;1.10
54122;BME280;40029;58.708;50.190;2023-04-08T12:00:49;101394.44;;;16.59;1.18
54122;BME280;40029;58.708;50.190;2023-04-08T12:03:55;101433.28;;;17.45;0.02
54122;BME280;40029;58.708;50.190;2023-04-08T12:06:45;101433.91;;;18.16;0.15
54122;BME280;40029;58.708;50.190;2023-04-08T12:09:17;101420.50;;;18.41;0.57
54122;BME280;40029;58.708;50.190;2023-04-08T12:11:48;101415.84;;;18.46;0.29
54122;BME280;40029;58.708;50.190;2023-04-08T12:14:19;101429.16;;;18.84;0.24
54122;BME280;40029;58.708;50.190;2023-04-08T12:16:51;101434.06;;;19.10;0.00
54122;BME280;40029;58.708;50.190;2023-04-08T12:19:23;101421.47;;;19.34;0.00
54122;BME280;40029;58.708;50.190;2023-04-08T12:21:54;101424.47;;;19.82;0.00
54122;BME280;40029;58.708;50.190;2023-04-08T12:24:25;101389.75;;;19.88;0.00
54122;BME280;40029;58.708;50.190;2023-04-08T12:26:56;101373.50;;;19.95;0.00
54122;BME280;40029;58.708;50.190;2023-04-08T12:29:27;101376.09;;;19.80;0.00
54122;BME280;40029;58.708;50.190;2023-04-08T12:31:59;101357.97;;;19.00;0.00
54122;BME280;40029;58.708;50.190;2023-04-08T12:34:30;101399.31;;;19.37;0.00
54122;BME280;40029;58.708;50.190;2023-04-08T12:37:02;101407.84;;;19.80;0.00
54122;BME280;40029;58.708;50.190;2023-04-08T12:39:33;101396.91;;;20.03;0.00
54122;BME280;40029;58.708;50.190;2023-04-08T12:42:04;101394.25;;;20.20;0.00
54122;BME280;40029;58.708;50.190;2023-04-08T12:44:36;101391.44;;;20.23;0.00
54122;BME280;40029;58.708;50.190;2023-04-08T12:47:25;101348.75;;;20.14;0.00
54122;BME280;40029;58.708;50.190;2023-04-08T12:49:56;101351.94;;;20.36;0.00
54122;BME280;40029;58.708;50.190;2023-04-08T12:52:46;101340.06;;;20.28;0.00
54122;BME280;40029;58.708;50.190;2023-04-08T12:55:17;101382.47;;;20.43;0.00
54122;BME280;40029;58.708;50.190;2023-04-08T12:57:50;101387.66;;;20.45;0.00
54122;BME280;40029;58.708;50.190;2023-04-08T13:00:21;101368.06;;;19.98;0.00
54122;BME280;40029;58.708;50.190;2023-04-08T13:02:53;101331.66;;;19.86;0.00
54122;BME280;40029;58.708;50.190;2023-04-08T13:05:43;101365.47;;;20.47;0.00
54122;BME280;40029;58.708;50.190;2023-04-08T13:08:14;101362.13;;;20.44;0.00
54122;BME280;40029;58.708;50.190;2023-04-08T13:10:47;101350.66;;;20.77;0.00
54122;BME280;40029;58.708;50.190;2023-04-08T13:13:18;101357.75;;;20.76;0.00
54122;BME280;40029;58.708;50.190;2023-04-08T13:15:49;101363.81;;;20.62;0.00
54122;BME280;40029;58.708;50.190;2023-04-08T13:18:21;101330.38;;;20.44;0.00
54122;BME280;40029;58.708;50.190;2023-04-08T13:20:52;101328.03;;;20.22;0.00
54122;BME280;40029;58.708;50.190;2023-04-08T13:23:24;101321.09;;;20.19;0.00
54122;BME280;40029;58.708;50.190;2023-04-08T13:25:55;101351.59;;;20.42;0.00
54122;BME280;40029;58.708;50.190;2023-04-08T13:28:26;101331.97;;;19.97;0.00
54122;BME280;40029;58.708;50.190;2023-04-08T13:30:57;101266.53;;;19.49;0.00
54122;BME280;40029;58.708;50.190;2023-04-08T13:33:29;101309.31;;;19.40;0.00
54122;BME280;40029;58.708;50.190;2023-04-08T13:36:00;101339.00;;;19.45;0.00
54122;BME280;40029;58.708;50.190;2023-04-08T13:38:31;101313.81;;;19.20;0.00